Taber, Canada
Current Conditions -  °F | °C
As of 12:00 AM on Saturday 29 Nov 2014 (Local Time) from CYQL Reporting Station
Light Snow Light Snow  
Wind Chill: -25°   Ceiling: 1000
Heat Index: -6°   Visibility: 0.75mi
Dew Point: -9°   Wind: 13mph
Humidity: 84%   Direction: 320°NW
Pressure: 29.75"   Gusts: NA
Location:  49.79°N, 112.14°W
Report Text: CYQL 290700Z AUTO 32011KT 3/4SM -SN VV010 M21/M23 A2975 RMK PCPN 1.0MM PAST HR SLP162
Loading
Personal Weather Stations






























Interactive Weather Map New forecast layout! Learn more

10-Day Weather Forecast

Advertisements
Track Severe Weather on mobile